createdAt,value
2022-10-17T00:00:07.415Z,90.20
2022-10-17T00:02:33.826Z,90.20
2022-10-17T00:05:00.208Z,89.90
2022-10-17T00:07:26.903Z,90.00
2022-10-17T00:09:53.526Z,90.40
2022-10-17T00:12:19.936Z,89.80
2022-10-17T00:14:46.346Z,89.80
2022-10-17T00:17:12.796Z,89.80
2022-10-17T00:19:39.179Z,89.80
2022-10-17T00:22:05.602Z,90.80
2022-10-17T00:24:31.991Z,89.80
2022-10-17T00:26:58.394Z,90.80
2022-10-17T00:29:24.800Z,89.90
2022-10-17T00:31:51.267Z,89.90
2022-10-17T00:34:17.719Z,90.40
2022-10-17T00:36:44.148Z,91.20
2022-10-17T00:39:10.588Z,90.00
2022-10-17T00:41:37.006Z,89.90
2022-10-17T00:44:03.415Z,90.00
2022-10-17T00:46:29.810Z,90.00
2022-10-17T00:48:56.200Z,89.90
2022-10-17T00:51:22.615Z,89.90
2022-10-17T00:53:49.037Z,89.90
2022-10-17T00:56:15.469Z,89.90
2022-10-17T00:58:41.870Z,89.90
2022-10-17T01:01:08.317Z,89.90
2022-10-17T01:03:34.764Z,89.90
2022-10-17T01:08:28.142Z,90.40
2022-10-17T01:10:54.586Z,90.00
2022-10-17T01:13:21.029Z,90.00
2022-10-17T01:15:47.433Z,90.00
2022-10-17T01:18:13.858Z,89.90
2022-10-17T01:20:40.270Z,90.00
2022-10-17T01:23:06.751Z,90.00
2022-10-17T01:25:33.163Z,89.90
2022-10-17T01:27:59.591Z,90.50
2022-10-17T01:30:26.029Z,89.90
2022-10-17T01:32:52.457Z,89.90
2022-10-17T01:35:18.853Z,89.90
2022-10-17T01:37:45.310Z,89.90
2022-10-17T01:40:11.762Z,89.90
2022-10-17T01:42:38.363Z,89.80
2022-10-17T01:45:04.785Z,89.90
2022-10-17T01:47:31.411Z,89.90
2022-10-17T01:49:57.912Z,88.00
2022-10-17T01:52:24.333Z,89.90
2022-10-17T01:54:50.718Z,89.90
2022-10-17T01:57:17.151Z,90.00
2022-10-17T01:59:43.568Z,90.00
2022-10-17T02:02:09.982Z,90.40
2022-10-17T02:04:36.380Z,89.90
2022-10-17T02:07:02.806Z,90.00
2022-10-17T02:09:29.197Z,89.90
2022-10-17T02:11:55.619Z,89.90
2022-10-17T02:14:22.036Z,90.00
2022-10-17T02:16:48.481Z,89.90
2022-10-17T02:19:14.891Z,89.90
2022-10-17T02:21:41.355Z,89.90
2022-10-17T02:24:07.740Z,90.00
2022-10-17T02:26:34.282Z,90.00
2022-10-17T02:29:00.730Z,90.00
2022-10-17T02:31:27.167Z,90.10
2022-10-17T02:33:53.607Z,90.00
2022-10-17T02:36:20.030Z,90.10
2022-10-17T02:38:46.418Z,90.00
2022-10-17T02:41:13.254Z,90.00
2022-10-17T02:43:39.713Z,90.00
2022-10-17T02:46:06.104Z,90.10
2022-10-17T02:48:32.518Z,90.00
2022-10-17T02:50:58.923Z,90.00
2022-10-17T02:53:25.360Z,90.10
2022-10-17T02:55:51.764Z,90.00
2022-10-17T02:58:18.355Z,90.00
2022-10-17T03:00:44.740Z,90.00
2022-10-17T03:03:11.149Z,90.00
2022-10-17T03:05:37.546Z,90.60
2022-10-17T03:08:03.958Z,90.00
2022-10-17T03:10:30.361Z,90.00
2022-10-17T03:12:56.852Z,90.00
2022-10-17T03:15:23.254Z,90.00
2022-10-17T03:17:49.688Z,90.00
2022-10-17T03:20:16.123Z,90.00
2022-10-17T03:22:42.553Z,90.00
2022-10-17T03:25:08.959Z,90.00
2022-10-17T03:27:35.381Z,90.00
2022-10-17T03:30:01.809Z,90.00
2022-10-17T03:32:28.232Z,89.90
2022-10-17T03:34:54.675Z,90.00
2022-10-17T03:37:21.142Z,90.00
2022-10-17T03:39:47.546Z,90.00
2022-10-17T03:42:14.014Z,89.90
2022-10-17T03:44:40.430Z,90.00
2022-10-17T03:47:09.230Z,90.00
2022-10-17T03:49:38.268Z,90.00
2022-10-17T03:52:04.692Z,90.00
2022-10-17T03:54:31.122Z,90.00
2022-10-17T03:59:23.894Z,90.60
2022-10-17T04:01:50.310Z,90.00
2022-10-17T04:04:16.773Z,90.00
2022-10-17T04:06:43.195Z,90.00
2022-10-17T04:09:09.600Z,90.00
2022-10-17T04:11:36.027Z,90.00
2022-10-17T04:14:02.460Z,90.00
2022-10-17T04:16:29.091Z,90.00
2022-10-17T04:18:55.493Z,90.00
2022-10-17T04:21:21.879Z,90.00
2022-10-17T04:23:48.284Z,90.00
2022-10-17T04:26:14.675Z,90.60
2022-10-17T04:28:41.122Z,90.00
2022-10-17T04:31:07.827Z,90.00
2022-10-17T04:33:34.288Z,90.00
2022-10-17T04:36:00.678Z,90.00
2022-10-17T04:38:28.576Z,89.90
2022-10-17T04:40:55.274Z,90.00
2022-10-17T04:43:21.691Z,90.00
2022-10-17T04:45:48.093Z,90.00
2022-10-17T04:48:14.521Z,90.00
2022-10-17T04:50:40.940Z,90.00
2022-10-17T04:53:07.385Z,90.00
2022-10-17T04:55:33.785Z,89.90
2022-10-17T04:58:00.235Z,90.00
2022-10-17T05:00:26.650Z,90.00
2022-10-17T05:02:53.080Z,90.00
2022-10-17T05:05:19.477Z,90.00
2022-10-17T05:07:45.909Z,90.00
2022-10-17T05:10:12.314Z,90.00
2022-10-17T05:12:38.742Z,90.00
2022-10-17T05:15:05.158Z,90.00
2022-10-17T05:17:31.593Z,90.00
2022-10-17T05:19:57.991Z,90.00
2022-10-17T05:22:24.395Z,90.00
2022-10-17T05:24:50.807Z,89.90
2022-10-17T05:27:17.210Z,90.00
2022-10-17T05:29:43.632Z,90.00
2022-10-17T05:32:10.060Z,90.00
2022-10-17T05:34:36.469Z,90.60
2022-10-17T05:37:02.884Z,89.90
2022-10-17T05:39:29.279Z,90.00
2022-10-17T05:41:55.672Z,89.90
2022-10-17T05:44:22.084Z,90.00
2022-10-17T05:46:48.506Z,90.00
2022-10-17T05:49:31.998Z,89.90
2022-10-17T05:51:59.626Z,90.00
2022-10-17T05:54:26.048Z,90.00
2022-10-17T05:56:52.450Z,90.00
2022-10-17T05:59:18.877Z,90.00
2022-10-17T06:01:45.327Z,90.00
2022-10-17T06:04:11.795Z,90.00
2022-10-17T06:06:38.201Z,90.00
2022-10-17T06:09:04.649Z,90.00
2022-10-17T06:11:31.045Z,90.00
2022-10-17T06:13:57.454Z,90.00
2022-10-17T06:16:23.848Z,90.00
2022-10-17T06:18:50.274Z,90.00
2022-10-17T06:21:16.672Z,90.00
2022-10-17T06:23:43.083Z,90.20
2022-10-17T06:26:09.483Z,90.00
2022-10-17T06:28:36.014Z,90.00
2022-10-17T06:31:02.552Z,90.00
2022-10-17T06:33:28.978Z,90.00
2022-10-17T06:35:55.375Z,90.00
2022-10-17T06:38:21.780Z,90.00
2022-10-17T06:40:48.186Z,90.00
2022-10-17T06:43:14.609Z,90.00
2022-10-17T06:45:41.005Z,90.00
2022-10-17T06:48:07.440Z,90.00
2022-10-17T06:50:33.841Z,90.00
2022-10-17T06:53:00.257Z,90.00
2022-10-17T06:55:26.680Z,90.50
2022-10-17T06:57:54.305Z,90.00
2022-10-17T07:00:20.771Z,90.00
2022-10-17T07:02:47.224Z,90.00
2022-10-17T07:05:13.628Z,90.00
2022-10-17T07:07:43.087Z,90.00
2022-10-17T07:10:11.196Z,90.00
2022-10-17T07:12:37.627Z,90.00
2022-10-17T07:15:04.034Z,90.00
2022-10-17T07:17:30.745Z,90.00
2022-10-17T07:19:57.425Z,90.00
2022-10-17T07:22:23.883Z,90.00
2022-10-17T07:27:16.632Z,90.00
2022-10-17T07:29:43.046Z,90.00
2022-10-17T07:32:09.461Z,90.00
2022-10-17T07:34:35.882Z,90.00
2022-10-17T07:37:02.270Z,90.10
2022-10-17T07:39:28.685Z,90.00
2022-10-17T07:41:55.081Z,90.00
2022-10-17T07:44:21.701Z,90.00
2022-10-17T07:46:48.125Z,90.00
2022-10-17T07:49:14.592Z,90.60
2022-10-17T07:51:41.036Z,90.00
2022-10-17T07:54:07.517Z,90.00
2022-10-17T07:56:33.960Z,90.00
2022-10-17T07:59:02.651Z,90.00
2022-10-17T08:01:31.652Z,90.00
2022-10-17T08:03:58.073Z,90.00
2022-10-17T08:06:24.480Z,90.00
2022-10-17T08:08:50.895Z,90.00
2022-10-17T08:11:17.470Z,90.00
2022-10-17T08:13:43.879Z,90.00
2022-10-17T08:16:10.291Z,90.00
2022-10-17T08:18:36.889Z,90.00
2022-10-17T08:21:03.312Z,90.50
2022-10-17T08:23:29.725Z,90.10
2022-10-17T08:25:56.122Z,90.00
2022-10-17T08:28:22.586Z,90.00
2022-10-17T08:30:48.987Z,90.10
2022-10-17T08:33:15.391Z,91.30
2022-10-17T08:35:41.793Z,90.10
2022-10-17T08:38:10.003Z,90.10
2022-10-17T08:40:38.741Z,90.10
2022-10-17T08:43:05.169Z,90.10
2022-10-17T08:45:31.584Z,90.10
2022-10-17T08:47:58.005Z,90.10
2022-10-17T08:50:24.422Z,90.10
2022-10-17T08:52:50.869Z,90.10
2022-10-17T08:55:17.296Z,90.10
2022-10-17T08:57:43.699Z,90.10
2022-10-17T09:00:10.136Z,90.10
2022-10-17T09:02:36.593Z,90.10
2022-10-17T09:05:03.022Z,90.10
2022-10-17T09:07:29.619Z,90.10
2022-10-17T09:09:56.146Z,90.30
2022-10-17T09:12:22.563Z,90.70
2022-10-17T09:14:48.991Z,90.10
2022-10-17T09:17:15.363Z,90.10
2022-10-17T09:19:41.766Z,90.10
2022-10-17T09:22:08.158Z,90.70
2022-10-17T09:24:34.568Z,90.10
2022-10-17T09:27:00.947Z,90.10
2022-10-17T09:29:32.406Z,90.10
2022-10-17T09:32:01.864Z,90.10
2022-10-17T09:34:28.267Z,90.10
2022-10-17T09:36:54.681Z,90.10
2022-10-17T09:39:21.157Z,90.10
2022-10-17T09:41:47.693Z,90.10
2022-10-17T09:44:14.141Z,91.40
2022-10-17T09:46:40.547Z,90.10
2022-10-17T09:49:06.966Z,90.10
2022-10-17T09:51:33.343Z,90.10
2022-10-17T09:53:59.844Z,90.10
2022-10-17T09:56:26.239Z,90.10
2022-10-17T09:58:52.631Z,90.10
2022-10-17T10:01:22.739Z,90.10
2022-10-17T10:03:50.654Z,90.10
2022-10-17T10:06:17.055Z,90.10
2022-10-17T10:08:43.498Z,90.10
2022-10-17T10:11:13.767Z,90.10
2022-10-17T10:13:40.495Z,90.20
2022-10-17T10:16:06.871Z,90.10
2022-10-17T10:18:33.297Z,90.10
2022-10-17T10:20:59.721Z,90.10
2022-10-17T10:23:26.131Z,90.10
2022-10-17T10:25:52.568Z,90.10
2022-10-17T10:28:18.991Z,90.10
2022-10-17T10:30:45.387Z,90.10
2022-10-17T10:33:11.803Z,90.10
2022-10-17T10:35:38.204Z,90.10
2022-10-17T10:38:05.188Z,90.10
2022-10-17T10:40:31.599Z,90.10
2022-10-17T10:43:04.020Z,90.10
2022-10-17T10:45:48.508Z,90.10
2022-10-17T10:48:15.308Z,90.20
2022-10-17T10:50:45.149Z,90.20
2022-10-17T10:53:11.892Z,90.10
2022-10-17T10:55:38.293Z,90.10
2022-10-17T10:58:04.720Z,90.80
2022-10-17T11:00:31.240Z,90.20
2022-10-17T11:02:57.729Z,90.10
2022-10-17T11:05:24.178Z,90.10
2022-10-17T11:07:50.606Z,90.10
2022-10-17T11:10:17.037Z,90.10
2022-10-17T11:15:09.791Z,90.20
2022-10-17T11:17:36.207Z,90.20
2022-10-17T11:20:02.639Z,90.10
2022-10-17T11:22:29.471Z,90.10
2022-10-17T11:24:56.120Z,90.10
2022-10-17T11:27:22.529Z,90.10
2022-10-17T11:29:49.067Z,90.10
2022-10-17T11:32:15.472Z,90.10
2022-10-17T11:34:41.889Z,90.10
2022-10-17T11:37:08.360Z,90.20
2022-10-17T11:39:34.828Z,90.10
2022-10-17T11:42:03.461Z,90.10
2022-10-17T11:44:30.668Z,90.10
2022-10-17T11:46:57.424Z,90.30
2022-10-17T11:49:24.117Z,90.20
2022-10-17T11:52:05.936Z,90.80
2022-10-17T11:54:32.397Z,90.10
2022-10-17T11:56:58.799Z,90.20
2022-10-17T11:59:25.218Z,90.20
2022-10-17T12:01:51.647Z,90.20
2022-10-17T12:04:18.114Z,90.10
2022-10-17T12:06:44.580Z,90.10
2022-10-17T12:09:11.011Z,90.10
2022-10-17T12:11:37.442Z,90.10
2022-10-17T12:14:06.212Z,90.10
2022-10-17T12:16:33.037Z,90.10
2022-10-17T12:18:59.528Z,90.20
2022-10-17T12:21:29.725Z,90.10
2022-10-17T12:23:57.744Z,90.20
2022-10-17T12:26:24.227Z,90.20
2022-10-17T12:28:50.724Z,90.20
2022-10-17T12:31:17.174Z,90.20
2022-10-17T12:33:43.598Z,90.20
2022-10-17T12:36:09.984Z,90.20
2022-10-17T12:38:36.395Z,90.20
2022-10-17T12:41:02.813Z,90.20
2022-10-17T12:43:29.333Z,90.20
2022-10-17T12:45:55.820Z,90.20
2022-10-17T12:48:22.281Z,90.30
2022-10-17T12:50:48.712Z,90.30
2022-10-17T12:53:17.058Z,90.30
2022-10-17T12:55:45.690Z,90.30
2022-10-17T12:58:12.091Z,90.20
2022-10-17T13:00:38.578Z,90.20
2022-10-17T13:03:05.109Z,90.30
2022-10-17T13:05:31.526Z,90.30
2022-10-17T13:07:57.927Z,90.20
2022-10-17T13:10:24.408Z,90.20
2022-10-17T13:12:50.816Z,90.30
2022-10-17T13:15:17.242Z,90.40
2022-10-17T13:17:43.970Z,90.20
2022-10-17T13:20:10.438Z,90.30
2022-10-17T13:22:36.862Z,90.30
2022-10-17T13:25:03.265Z,90.20
2022-10-17T13:27:29.687Z,90.30
2022-10-17T13:29:56.126Z,90.20
2022-10-17T13:32:22.540Z,90.30
2022-10-17T13:34:48.978Z,90.30
2022-10-17T13:37:15.424Z,90.30
2022-10-17T13:40:00.437Z,90.30
2022-10-17T13:42:28.723Z,90.20
2022-10-17T13:44:55.392Z,90.30
2022-10-17T13:47:21.793Z,90.30
2022-10-17T13:49:50.519Z,90.20
2022-10-17T13:52:19.291Z,90.30
2022-10-17T13:54:45.736Z,90.30
2022-10-17T13:57:12.327Z,90.30
2022-10-17T13:59:38.738Z,91.40
2022-10-17T14:02:05.165Z,90.30
2022-10-17T14:04:44.737Z,90.30
2022-10-17T14:07:17.967Z,90.20
2022-10-17T14:09:44.393Z,90.20
2022-10-17T14:12:10.783Z,90.20
2022-10-17T14:14:58.074Z,90.30
2022-10-17T14:17:23.560Z,90.30
2022-10-17T14:20:05.903Z,90.40
2022-10-17T14:22:34.550Z,90.30
2022-10-17T14:25:04.009Z,90.30
2022-10-17T14:27:30.572Z,90.40
2022-10-17T14:29:57.154Z,90.80
2022-10-17T14:32:23.599Z,90.30
2022-10-17T14:34:50.041Z,90.30
2022-10-17T14:37:16.436Z,90.30
2022-10-17T14:39:42.855Z,90.20
2022-10-17T14:42:09.266Z,90.30
2022-10-17T14:44:35.694Z,90.20
2022-10-17T14:47:18.312Z,90.20
2022-10-17T14:49:48.507Z,90.20
2022-10-17T14:52:18.838Z,90.20
2022-10-17T14:54:45.501Z,90.30
2022-10-17T14:57:11.943Z,90.30
2022-10-17T14:59:53.346Z,90.30
2022-10-17T15:02:20.032Z,90.90
2022-10-17T15:04:46.457Z,90.30
2022-10-17T15:07:12.996Z,90.30
2022-10-17T15:09:39.407Z,90.30
2022-10-17T15:12:05.824Z,90.30
2022-10-17T15:14:32.253Z,90.30
2022-10-17T15:16:58.647Z,90.30
2022-10-17T15:19:25.052Z,90.30
2022-10-17T15:21:51.449Z,90.30
2022-10-17T15:24:17.903Z,90.30
2022-10-17T15:26:44.403Z,90.40
2022-10-17T15:29:10.969Z,90.40
2022-10-17T15:31:37.380Z,90.40
2022-10-17T15:34:03.806Z,90.40
2022-10-17T15:36:30.255Z,90.40
2022-10-17T15:38:56.677Z,90.30
2022-10-17T15:41:23.098Z,90.30
2022-10-17T15:43:49.522Z,90.40
2022-10-17T15:46:15.917Z,90.40
2022-10-17T15:48:42.324Z,90.40
2022-10-17T15:51:08.752Z,90.40
2022-10-17T15:53:35.179Z,90.40
2022-10-17T15:56:01.595Z,90.90
2022-10-17T15:58:28.015Z,90.40
2022-10-17T16:00:54.574Z,90.40
2022-10-17T16:05:48.454Z,90.40
2022-10-17T16:08:14.851Z,90.50
2022-10-17T16:10:41.271Z,90.40
2022-10-17T16:13:07.670Z,90.40
2022-10-17T16:15:34.269Z,90.40
2022-10-17T16:18:02.975Z,90.90
2022-10-17T16:20:32.984Z,90.40
2022-10-17T16:22:59.602Z,90.40
2022-10-17T16:25:26.070Z,90.40
2022-10-17T16:27:52.469Z,90.40
2022-10-17T16:30:18.965Z,90.40
2022-10-17T16:32:45.421Z,90.40
2022-10-17T16:35:11.857Z,90.40
2022-10-17T16:37:38.385Z,90.40
2022-10-17T16:40:04.825Z,90.40
2022-10-17T16:42:31.554Z,90.40
2022-10-17T16:44:58.216Z,90.40
2022-10-17T16:47:24.638Z,90.50
2022-10-17T16:49:51.085Z,90.40
2022-10-17T16:52:17.504Z,90.40
2022-10-17T16:54:43.921Z,90.40
2022-10-17T16:57:10.335Z,90.40
2022-10-17T16:59:36.758Z,91.10
2022-10-17T17:02:03.179Z,90.40
2022-10-17T17:04:29.600Z,90.40
2022-10-17T17:06:56.000Z,90.40
2022-10-17T17:09:22.452Z,90.40
2022-10-17T17:11:48.845Z,90.40
2022-10-17T17:14:15.309Z,91.50
2022-10-17T17:16:41.714Z,90.40
2022-10-17T17:19:08.138Z,90.40
2022-10-17T17:21:34.548Z,90.40
2022-10-17T17:24:00.962Z,90.40
2022-10-17T17:26:27.357Z,90.40
2022-10-17T17:28:53.824Z,90.90
2022-10-17T17:31:20.281Z,90.40
2022-10-17T17:33:46.744Z,90.60
2022-10-17T17:36:14.212Z,90.40
2022-10-17T17:38:40.608Z,90.40
2022-10-17T17:41:07.146Z,90.50
2022-10-17T17:43:33.736Z,90.30
2022-10-17T17:46:00.180Z,90.50
2022-10-17T17:48:26.572Z,90.60
2022-10-17T17:50:53.031Z,91.10
2022-10-17T17:53:19.415Z,90.60
2022-10-17T17:55:45.819Z,90.40
2022-10-17T17:58:12.234Z,90.60
2022-10-17T18:00:38.666Z,90.90
2022-10-17T18:03:05.055Z,90.50
2022-10-17T18:05:31.445Z,90.50
2022-10-17T18:07:57.866Z,90.50
2022-10-17T18:10:24.304Z,90.50
2022-10-17T18:12:50.676Z,91.00
2022-10-17T18:15:17.096Z,91.30
2022-10-17T18:17:43.491Z,91.10
2022-10-17T18:20:09.886Z,90.60
2022-10-17T18:22:36.274Z,90.50
2022-10-17T18:25:02.715Z,90.50
2022-10-17T18:27:29.138Z,90.60
2022-10-17T18:29:55.556Z,90.50
2022-10-17T18:32:21.981Z,90.70
2022-10-17T18:34:48.423Z,90.50
2022-10-17T18:37:14.819Z,90.50
2022-10-17T18:39:41.241Z,90.50
2022-10-17T18:42:07.662Z,90.50
2022-10-17T18:44:34.097Z,90.50
2022-10-17T18:47:03.854Z,90.50
2022-10-17T18:49:30.949Z,90.50
2022-10-17T18:51:57.356Z,90.50
2022-10-17T18:54:23.826Z,90.50
2022-10-17T18:56:50.215Z,90.50
2022-10-17T18:59:16.639Z,90.50
2022-10-17T19:01:43.060Z,90.50
2022-10-17T19:04:09.490Z,90.60
2022-10-17T19:06:35.877Z,90.50
2022-10-17T19:09:02.305Z,90.60
2022-10-17T19:11:28.720Z,90.40
2022-10-17T19:13:55.130Z,90.50
2022-10-17T19:16:21.526Z,90.50
2022-10-17T19:18:47.946Z,91.20
2022-10-17T19:21:17.992Z,90.50
2022-10-17T19:23:47.066Z,90.50
2022-10-17T19:26:13.462Z,90.50
2022-10-17T19:28:39.920Z,90.50
2022-10-17T19:31:06.338Z,90.50
2022-10-17T19:33:32.742Z,90.50
2022-10-17T19:35:59.160Z,90.50
2022-10-17T19:38:25.573Z,90.50
2022-10-17T19:40:52.012Z,90.50
2022-10-17T19:43:18.627Z,90.50
2022-10-17T19:45:45.067Z,90.50
2022-10-17T19:48:11.494Z,90.50
2022-10-17T19:50:40.613Z,90.50
2022-10-17T19:53:07.797Z,90.50
2022-10-17T19:55:34.208Z,90.50
2022-10-17T19:58:00.647Z,90.50
2022-10-17T20:00:27.071Z,90.50
2022-10-17T20:02:53.484Z,90.50
2022-10-17T20:05:22.525Z,90.50
2022-10-17T20:07:50.162Z,90.50
2022-10-17T20:10:16.569Z,90.50
2022-10-17T20:12:42.963Z,91.10
2022-10-17T20:15:09.369Z,91.60
2022-10-17T20:17:35.805Z,91.20
2022-10-17T20:20:04.893Z,90.50
2022-10-17T20:22:34.293Z,90.50
2022-10-17T20:25:00.700Z,90.70
2022-10-17T20:27:27.902Z,90.60
2022-10-17T20:29:54.391Z,90.70
2022-10-17T20:32:20.784Z,91.00
2022-10-17T20:34:47.196Z,91.50
2022-10-17T20:37:13.635Z,90.60
2022-10-17T20:39:40.030Z,90.50
2022-10-17T20:42:06.438Z,90.50
2022-10-17T20:44:32.882Z,90.50
2022-10-17T20:47:02.237Z,90.90
2022-10-17T20:49:29.213Z,90.60
2022-10-17T20:51:55.649Z,91.10
2022-10-17T20:54:22.088Z,90.60
2022-10-17T20:56:48.482Z,90.60
2022-10-17T20:59:14.890Z,90.60
2022-10-17T21:01:41.335Z,91.20
2022-10-17T21:06:54.144Z,90.60
2022-10-17T21:09:20.544Z,90.60
2022-10-17T21:11:46.949Z,90.90
2022-10-17T21:14:13.386Z,90.60
2022-10-17T21:16:39.787Z,90.60
2022-10-17T21:19:06.373Z,90.60
2022-10-17T21:21:32.784Z,90.60
2022-10-17T21:23:59.214Z,90.60
2022-10-17T21:26:25.611Z,90.60
2022-10-17T21:28:52.320Z,90.60
2022-10-17T21:31:18.759Z,90.60
2022-10-17T21:33:45.153Z,90.60
2022-10-17T21:36:11.568Z,90.60
2022-10-17T21:38:37.986Z,90.60
2022-10-17T21:41:04.392Z,90.60
2022-10-17T21:43:30.803Z,90.60
2022-10-17T21:45:57.217Z,90.60
2022-10-17T21:48:25.054Z,90.60
2022-10-17T21:50:51.482Z,90.60
2022-10-17T21:53:17.886Z,90.60
2022-10-17T21:55:44.355Z,91.10
2022-10-17T21:58:10.909Z,90.60
2022-10-17T22:00:37.465Z,90.60
2022-10-17T22:03:03.852Z,90.60
2022-10-17T22:05:30.287Z,90.60
2022-10-17T22:07:56.709Z,90.60
2022-10-17T22:10:23.124Z,90.60
2022-10-17T22:12:49.544Z,90.60
2022-10-17T22:15:15.961Z,90.60
2022-10-17T22:17:42.361Z,90.60
2022-10-17T22:20:08.803Z,90.60
2022-10-17T22:22:35.195Z,90.60
2022-10-17T22:25:01.621Z,90.60
2022-10-17T22:27:28.264Z,90.60
2022-10-17T22:29:54.877Z,90.60
2022-10-17T22:32:22.518Z,90.60
2022-10-17T22:34:49.174Z,91.30
2022-10-17T22:37:15.561Z,90.60
2022-10-17T22:39:41.970Z,90.80
2022-10-17T22:42:08.356Z,90.60
2022-10-17T22:44:34.930Z,90.70
2022-10-17T22:47:01.319Z,91.50
2022-10-17T22:49:27.759Z,90.60
2022-10-17T22:51:54.157Z,90.60
2022-10-17T22:54:20.591Z,90.60
2022-10-17T22:56:46.973Z,90.60
2022-10-17T22:59:13.383Z,90.60
2022-10-17T23:01:39.825Z,90.60
2022-10-17T23:04:06.259Z,90.70
2022-10-17T23:06:32.669Z,90.60
2022-10-17T23:08:59.076Z,91.10
2022-10-17T23:11:25.534Z,90.60
2022-10-17T23:13:51.936Z,90.60
2022-10-17T23:16:18.346Z,90.60
2022-10-17T23:18:44.752Z,90.60
2022-10-17T23:21:11.162Z,90.60
2022-10-17T23:23:37.561Z,90.60
2022-10-17T23:26:03.981Z,90.60
2022-10-17T23:28:30.433Z,90.60
2022-10-17T23:30:56.919Z,90.60
2022-10-17T23:33:23.326Z,90.60
2022-10-17T23:35:49.739Z,90.60
2022-10-17T23:38:16.148Z,90.60
2022-10-17T23:40:42.559Z,90.70
2022-10-17T23:43:08.954Z,90.60
2022-10-17T23:45:37.172Z,90.70
2022-10-17T23:48:03.739Z,90.60
2022-10-17T23:50:30.146Z,90.70
2022-10-17T23:52:56.582Z,90.60
2022-10-17T23:55:23.007Z,90.60
2022-10-17T23:57:49.413Z,90.60
